sensor_id;sensor_type;location;lat;lon;timestamp;P1;durP1;ratioP1;P2;durP2;ratioP2
13879;SDS011;7010;48.200;16.332;2022-11-15T00:01:23;52.47;;;36.67;;
13879;SDS011;7010;48.200;16.332;2022-11-15T00:03:51;58.72;;;35.92;;
13879;SDS011;7010;48.200;16.332;2022-11-15T00:06:20;49.50;;;34.80;;
13879;SDS011;7010;48.200;16.332;2022-11-15T00:08:49;56.08;;;38.22;;
13879;SDS011;7010;48.200;16.332;2022-11-15T00:11:19;51.05;;;36.85;;
13879;SDS011;7010;48.200;16.332;2022-11-15T00:13:47;52.70;;;35.50;;
13879;SDS011;7010;48.200;16.332;2022-11-15T00:16:15;58.58;;;35.75;;
13879;SDS011;7010;48.200;16.332;2022-11-15T00:18:44;49.78;;;34.42;;
13879;SDS011;7010;48.200;16.332;2022-11-15T00:21:16;46.50;;;33.60;;
13879;SDS011;7010;48.200;16.332;2022-11-15T00:23:45;42.88;;;33.20;;
13879;SDS011;7010;48.200;16.332;2022-11-15T00:26:14;59.30;;;33.85;;
13879;SDS011;7010;48.200;16.332;2022-11-15T00:28:44;66.18;;;34.65;;
13879;SDS011;7010;48.200;16.332;2022-11-15T00:31:13;56.90;;;36.17;;
13879;SDS011;7010;48.200;16.332;2022-11-15T00:33:42;57.67;;;35.80;;
13879;SDS011;7010;48.200;16.332;2022-11-15T00:36:11;55.67;;;37.05;;
13879;SDS011;7010;48.200;16.332;2022-11-15T00:38:40;58.50;;;36.85;;
13879;SDS011;7010;48.200;16.332;2022-11-15T00:41:09;59.78;;;36.72;;
13879;SDS011;7010;48.200;16.332;2022-11-15T00:43:39;49.83;;;37.53;;
13879;SDS011;7010;48.200;16.332;2022-11-15T00:46:11;53.65;;;34.08;;
13879;SDS011;7010;48.200;16.332;2022-11-15T00:48:40;51.83;;;36.05;;
13879;SDS011;7010;48.200;16.332;2022-11-15T00:51:08;46.85;;;34.13;;
13879;SDS011;7010;48.200;16.332;2022-11-15T00:53:36;49.17;;;33.70;;
13879;SDS011;7010;48.200;16.332;2022-11-15T00:56:04;60.20;;;35.83;;
13879;SDS011;7010;48.200;16.332;2022-11-15T00:58:33;54.63;;;35.92;;
13879;SDS011;7010;48.200;16.332;2022-11-15T01:01:08;45.95;;;32.72;;
13879;SDS011;7010;48.200;16.332;2022-11-15T01:03:40;57.72;;;34.58;;
13879;SDS011;7010;48.200;16.332;2022-11-15T01:06:09;45.22;;;32.13;;
13879;SDS011;7010;48.200;16.332;2022-11-15T01:08:39;44.60;;;31.63;;
13879;SDS011;7010;48.200;16.332;2022-11-15T01:11:09;50.47;;;31.90;;
13879;SDS011;7010;48.200;16.332;2022-11-15T01:13:39;43.10;;;31.85;;
13879;SDS011;7010;48.200;16.332;2022-11-15T01:16:08;53.58;;;30.48;;
13879;SDS011;7010;48.200;16.332;2022-11-15T01:18:38;50.50;;;32.72;;
13879;SDS011;7010;48.200;16.332;2022-11-15T01:21:08;58.92;;;33.80;;
13879;SDS011;7010;48.200;16.332;2022-11-15T01:23:39;49.70;;;32.63;;
13879;SDS011;7010;48.200;16.332;2022-11-15T01:26:09;39.35;;;31.27;;
13879;SDS011;7010;48.200;16.332;2022-11-15T01:28:39;48.80;;;33.90;;
13879;SDS011;7010;48.200;16.332;2022-11-15T01:31:11;52.78;;;33.67;;
13879;SDS011;7010;48.200;16.332;2022-11-15T01:33:42;54.33;;;37.72;;
13879;SDS011;7010;48.200;16.332;2022-11-15T01:36:11;64.15;;;35.50;;
13879;SDS011;7010;48.200;16.332;2022-11-15T01:38:41;48.83;;;34.13;;
13879;SDS011;7010;48.200;16.332;2022-11-15T01:41:14;47.28;;;33.17;;
13879;SDS011;7010;48.200;16.332;2022-11-15T01:43:45;50.30;;;32.83;;
13879;SDS011;7010;48.200;16.332;2022-11-15T01:46:19;53.72;;;32.83;;
13879;SDS011;7010;48.200;16.332;2022-11-15T01:48:54;46.33;;;30.95;;
13879;SDS011;7010;48.200;16.332;2022-11-15T01:51:25;50.60;;;30.98;;
13879;SDS011;7010;48.200;16.332;2022-11-15T01:53:59;45.45;;;31.25;;
13879;SDS011;7010;48.200;16.332;2022-11-15T01:56:32;46.63;;;31.60;;
13879;SDS011;7010;48.200;16.332;2022-11-15T01:59:10;52.00;;;31.38;;
13879;SDS011;7010;48.200;16.332;2022-11-15T02:01:39;45.08;;;31.60;;
13879;SDS011;7010;48.200;16.332;2022-11-15T02:04:11;48.45;;;30.55;;
13879;SDS011;7010;48.200;16.332;2022-11-15T02:06:41;55.03;;;32.22;;
13879;SDS011;7010;48.200;16.332;2022-11-15T02:09:11;58.95;;;31.25;;
13879;SDS011;7010;48.200;16.332;2022-11-15T02:11:40;43.97;;;29.27;;
13879;SDS011;7010;48.200;16.332;2022-11-15T02:14:09;49.70;;;31.33;;
13879;SDS011;7010;48.200;16.332;2022-11-15T02:16:43;44.53;;;30.63;;
13879;SDS011;7010;48.200;16.332;2022-11-15T02:19:27;41.13;;;30.35;;
13879;SDS011;7010;48.200;16.332;2022-11-15T02:22:10;45.20;;;26.55;;
13879;SDS011;7010;48.200;16.332;2022-11-15T02:24:57;43.28;;;28.83;;
13879;SDS011;7010;48.200;16.332;2022-11-15T02:27:37;59.40;;;32.88;;
13879;SDS011;7010;48.200;16.332;2022-11-15T02:30:25;52.60;;;30.42;;
13879;SDS011;7010;48.200;16.332;2022-11-15T02:33:02;51.92;;;30.48;;
13879;SDS011;7010;48.200;16.332;2022-11-15T02:35:42;53.75;;;30.67;;
13879;SDS011;7010;48.200;16.332;2022-11-15T02:38:16;41.72;;;28.85;;
13879;SDS011;7010;48.200;16.332;2022-11-15T02:40:52;69.55;;;31.33;;
13879;SDS011;7010;48.200;16.332;2022-11-15T02:43:25;46.40;;;31.88;;
13879;SDS011;7010;48.200;16.332;2022-11-15T02:46:16;53.85;;;32.60;;
13879;SDS011;7010;48.200;16.332;2022-11-15T02:49:09;60.05;;;31.77;;
13879;SDS011;7010;48.200;16.332;2022-11-15T02:51:39;56.25;;;31.08;;
13879;SDS011;7010;48.200;16.332;2022-11-15T02:54:10;56.55;;;31.38;;
13879;SDS011;7010;48.200;16.332;2022-11-15T02:56:39;55.95;;;30.23;;
13879;SDS011;7010;48.200;16.332;2022-11-15T02:59:21;50.65;;;29.92;;
13879;SDS011;7010;48.200;16.332;2022-11-15T03:02:18;43.53;;;28.70;;
13879;SDS011;7010;48.200;16.332;2022-11-15T03:04:57;51.40;;;31.30;;
13879;SDS011;7010;48.200;16.332;2022-11-15T03:07:32;55.22;;;33.00;;
13879;SDS011;7010;48.200;16.332;2022-11-15T03:10:07;57.53;;;30.25;;
13879;SDS011;7010;48.200;16.332;2022-11-15T03:12:41;50.03;;;32.25;;
13879;SDS011;7010;48.200;16.332;2022-11-15T03:15:16;49.55;;;31.83;;
13879;SDS011;7010;48.200;16.332;2022-11-15T03:17:51;47.90;;;29.92;;
13879;SDS011;7010;48.200;16.332;2022-11-15T03:20:24;48.47;;;31.42;;
13879;SDS011;7010;48.200;16.332;2022-11-15T03:22:55;59.50;;;32.33;;
13879;SDS011;7010;48.200;16.332;2022-11-15T03:25:31;55.75;;;30.30;;
13879;SDS011;7010;48.200;16.332;2022-11-15T03:28:02;49.67;;;30.05;;
13879;SDS011;7010;48.200;16.332;2022-11-15T03:30:34;46.45;;;30.42;;
13879;SDS011;7010;48.200;16.332;2022-11-15T03:33:05;40.35;;;28.98;;
13879;SDS011;7010;48.200;16.332;2022-11-15T03:35:37;42.15;;;29.33;;
13879;SDS011;7010;48.200;16.332;2022-11-15T03:38:11;38.45;;;27.85;;
13879;SDS011;7010;48.200;16.332;2022-11-15T03:40:45;39.00;;;28.48;;
13879;SDS011;7010;48.200;16.332;2022-11-15T03:43:24;35.08;;;28.20;;
13879;SDS011;7010;48.200;16.332;2022-11-15T03:46:00;66.75;;;30.10;;
13879;SDS011;7010;48.200;16.332;2022-11-15T03:48:33;42.00;;;28.42;;
13879;SDS011;7010;48.200;16.332;2022-11-15T03:51:04;46.95;;;27.63;;
13879;SDS011;7010;48.200;16.332;2022-11-15T03:53:33;42.80;;;29.15;;
13879;SDS011;7010;48.200;16.332;2022-11-15T03:56:01;42.10;;;27.85;;
13879;SDS011;7010;48.200;16.332;2022-11-15T03:58:30;38.40;;;28.52;;
13879;SDS011;7010;48.200;16.332;2022-11-15T04:00:58;37.20;;;27.33;;
13879;SDS011;7010;48.200;16.332;2022-11-15T04:03:26;38.60;;;28.73;;
13879;SDS011;7010;48.200;16.332;2022-11-15T04:05:57;38.83;;;28.95;;
13879;SDS011;7010;48.200;16.332;2022-11-15T04:08:25;37.13;;;28.38;;
13879;SDS011;7010;48.200;16.332;2022-11-15T04:10:53;43.60;;;28.63;;
13879;SDS011;7010;48.200;16.332;2022-11-15T04:13:22;41.90;;;28.80;;
13879;SDS011;7010;48.200;16.332;2022-11-15T04:15:50;49.35;;;28.63;;
13879;SDS011;7010;48.200;16.332;2022-11-15T04:18:19;43.92;;;27.95;;
13879;SDS011;7010;48.200;16.332;2022-11-15T04:20:48;39.28;;;28.55;;
13879;SDS011;7010;48.200;16.332;2022-11-15T04:23:37;38.42;;;27.70;;
13879;SDS011;7010;48.200;16.332;2022-11-15T04:26:28;37.25;;;25.60;;
13879;SDS011;7010;48.200;16.332;2022-11-15T04:28:56;40.03;;;28.30;;
13879;SDS011;7010;48.200;16.332;2022-11-15T04:31:42;40.47;;;25.90;;
13879;SDS011;7010;48.200;16.332;2022-11-15T04:34:10;47.72;;;28.33;;
13879;SDS011;7010;48.200;16.332;2022-11-15T04:36:38;34.22;;;27.73;;
13879;SDS011;7010;48.200;16.332;2022-11-15T04:39:26;39.10;;;27.75;;
13879;SDS011;7010;48.200;16.332;2022-11-15T04:41:54;49.13;;;27.55;;
13879;SDS011;7010;48.200;16.332;2022-11-15T04:44:22;42.30;;;28.27;;
13879;SDS011;7010;48.200;16.332;2022-11-15T04:46:50;37.42;;;28.65;;
13879;SDS011;7010;48.200;16.332;2022-11-15T04:49:18;36.80;;;26.73;;
13879;SDS011;7010;48.200;16.332;2022-11-15T04:51:47;48.47;;;29.45;;
13879;SDS011;7010;48.200;16.332;2022-11-15T04:54:15;37.70;;;28.33;;
13879;SDS011;7010;48.200;16.332;2022-11-15T04:56:45;53.13;;;29.70;;
13879;SDS011;7010;48.200;16.332;2022-11-15T04:59:13;49.60;;;29.20;;
13879;SDS011;7010;48.200;16.332;2022-11-15T05:01:42;38.13;;;27.75;;
13879;SDS011;7010;48.200;16.332;2022-11-15T05:04:10;38.25;;;26.83;;
13879;SDS011;7010;48.200;16.332;2022-11-15T05:06:49;50.88;;;28.67;;
13879;SDS011;7010;48.200;16.332;2022-11-15T05:09:19;58.47;;;27.83;;
13879;SDS011;7010;48.200;16.332;2022-11-15T05:11:49;38.38;;;27.40;;
13879;SDS011;7010;48.200;16.332;2022-11-15T05:14:17;48.42;;;27.08;;
13879;SDS011;7010;48.200;16.332;2022-11-15T05:16:46;41.03;;;27.27;;
13879;SDS011;7010;48.200;16.332;2022-11-15T05:19:14;49.35;;;30.27;;
13879;SDS011;7010;48.200;16.332;2022-11-15T05:21:42;41.55;;;27.30;;
13879;SDS011;7010;48.200;16.332;2022-11-15T05:24:10;44.85;;;28.67;;
13879;SDS011;7010;48.200;16.332;2022-11-15T05:26:39;44.38;;;28.52;;
13879;SDS011;7010;48.200;16.332;2022-11-15T05:29:09;49.10;;;29.95;;
13879;SDS011;7010;48.200;16.332;2022-11-15T05:31:39;44.75;;;29.23;;
13879;SDS011;7010;48.200;16.332;2022-11-15T05:34:08;46.42;;;28.98;;
13879;SDS011;7010;48.200;16.332;2022-11-15T05:36:38;44.65;;;29.00;;
13879;SDS011;7010;48.200;16.332;2022-11-15T05:39:08;43.38;;;29.52;;
13879;SDS011;7010;48.200;16.332;2022-11-15T05:41:37;50.08;;;31.17;;
13879;SDS011;7010;48.200;16.332;2022-11-15T05:44:10;42.00;;;29.90;;
13879;SDS011;7010;48.200;16.332;2022-11-15T05:46:41;42.50;;;28.35;;
13879;SDS011;7010;48.200;16.332;2022-11-15T05:49:10;44.72;;;30.52;;
13879;SDS011;7010;48.200;16.332;2022-11-15T05:51:43;42.33;;;28.25;;
13879;SDS011;7010;48.200;16.332;2022-11-15T05:54:13;40.85;;;30.33;;
13879;SDS011;7010;48.200;16.332;2022-11-15T05:56:42;54.58;;;31.92;;
13879;SDS011;7010;48.200;16.332;2022-11-15T05:59:12;47.08;;;29.75;;
13879;SDS011;7010;48.200;16.332;2022-11-15T06:01:41;54.75;;;32.42;;
13879;SDS011;7010;48.200;16.332;2022-11-15T06:04:09;43.83;;;28.48;;
13879;SDS011;7010;48.200;16.332;2022-11-15T06:06:37;45.53;;;30.23;;
13879;SDS011;7010;48.200;16.332;2022-11-15T06:09:06;55.40;;;31.52;;
13879;SDS011;7010;48.200;16.332;2022-11-15T06:11:35;43.67;;;30.42;;
13879;SDS011;7010;48.200;16.332;2022-11-15T06:14:03;54.03;;;30.30;;
13879;SDS011;7010;48.200;16.332;2022-11-15T06:16:33;46.25;;;28.17;;
13879;SDS011;7010;48.200;16.332;2022-11-15T06:19:02;47.20;;;30.42;;
13879;SDS011;7010;48.200;16.332;2022-11-15T06:21:30;48.80;;;30.05;;
13879;SDS011;7010;48.200;16.332;2022-11-15T06:23:58;49.00;;;29.30;;
13879;SDS011;7010;48.200;16.332;2022-11-15T06:26:26;48.78;;;29.63;;
13879;SDS011;7010;48.200;16.332;2022-11-15T06:28:55;46.40;;;29.00;;
13879;SDS011;7010;48.200;16.332;2022-11-15T06:31:23;45.15;;;28.80;;
13879;SDS011;7010;48.200;16.332;2022-11-15T06:33:53;49.67;;;29.08;;
13879;SDS011;7010;48.200;16.332;2022-11-15T06:36:21;58.75;;;28.80;;
13879;SDS011;7010;48.200;16.332;2022-11-15T06:38:50;38.50;;;27.85;;
13879;SDS011;7010;48.200;16.332;2022-11-15T06:41:18;38.20;;;27.90;;
13879;SDS011;7010;48.200;16.332;2022-11-15T06:43:47;49.45;;;28.92;;
13879;SDS011;7010;48.200;16.332;2022-11-15T06:46:16;42.58;;;28.40;;
13879;SDS011;7010;48.200;16.332;2022-11-15T06:48:46;53.55;;;32.05;;
13879;SDS011;7010;48.200;16.332;2022-11-15T06:51:17;72.85;;;31.83;;
13879;SDS011;7010;48.200;16.332;2022-11-15T06:53:45;43.88;;;29.52;;
13879;SDS011;7010;48.200;16.332;2022-11-15T06:56:13;42.63;;;27.27;;
13879;SDS011;7010;48.200;16.332;2022-11-15T06:58:42;41.17;;;28.35;;
13879;SDS011;7010;48.200;16.332;2022-11-15T07:01:10;46.67;;;29.33;;
13879;SDS011;7010;48.200;16.332;2022-11-15T07:03:40;54.13;;;28.55;;
13879;SDS011;7010;48.200;16.332;2022-11-15T07:06:11;37.58;;;25.92;;
13879;SDS011;7010;48.200;16.332;2022-11-15T07:08:40;43.97;;;27.55;;
13879;SDS011;7010;48.200;16.332;2022-11-15T07:11:09;38.15;;;26.13;;
13879;SDS011;7010;48.200;16.332;2022-11-15T07:13:37;37.40;;;25.10;;
13879;SDS011;7010;48.200;16.332;2022-11-15T07:16:06;32.80;;;24.23;;
13879;SDS011;7010;48.200;16.332;2022-11-15T07:18:36;38.00;;;25.55;;
13879;SDS011;7010;48.200;16.332;2022-11-15T07:21:06;55.33;;;24.75;;
13879;SDS011;7010;48.200;16.332;2022-11-15T07:23:37;33.78;;;25.02;;
13879;SDS011;7010;48.200;16.332;2022-11-15T07:26:07;33.05;;;23.73;;
13879;SDS011;7010;48.200;16.332;2022-11-15T07:28:36;31.33;;;23.00;;
13879;SDS011;7010;48.200;16.332;2022-11-15T07:31:05;32.50;;;23.35;;
13879;SDS011;7010;48.200;16.332;2022-11-15T07:33:35;49.13;;;27.17;;
13879;SDS011;7010;48.200;16.332;2022-11-15T07:36:04;48.65;;;25.88;;
13879;SDS011;7010;48.200;16.332;2022-11-15T07:38:34;34.75;;;25.00;;
13879;SDS011;7010;48.200;16.332;2022-11-15T07:41:09;37.85;;;23.90;;
13879;SDS011;7010;48.200;16.332;2022-11-15T07:43:37;41.70;;;26.05;;
13879;SDS011;7010;48.200;16.332;2022-11-15T07:46:06;45.20;;;25.70;;
13879;SDS011;7010;48.200;16.332;2022-11-15T07:48:36;47.03;;;26.42;;
13879;SDS011;7010;48.200;16.332;2022-11-15T07:51:10;50.33;;;27.08;;
13879;SDS011;7010;48.200;16.332;2022-11-15T07:53:41;34.28;;;25.95;;
13879;SDS011;7010;48.200;16.332;2022-11-15T07:56:11;43.03;;;27.50;;
13879;SDS011;7010;48.200;16.332;2022-11-15T07:58:40;47.33;;;27.55;;
13879;SDS011;7010;48.200;16.332;2022-11-15T08:01:09;44.28;;;27.48;;
13879;SDS011;7010;48.200;16.332;2022-11-15T08:03:38;47.90;;;30.30;;
13879;SDS011;7010;48.200;16.332;2022-11-15T08:06:06;43.25;;;27.27;;
13879;SDS011;7010;48.200;16.332;2022-11-15T08:08:35;50.78;;;29.95;;
13879;SDS011;7010;48.200;16.332;2022-11-15T08:11:03;45.58;;;30.27;;
13879;SDS011;7010;48.200;16.332;2022-11-15T08:13:33;46.88;;;29.90;;
13879;SDS011;7010;48.200;16.332;2022-11-15T08:16:02;59.35;;;31.55;;
13879;SDS011;7010;48.200;16.332;2022-11-15T08:18:32;47.17;;;28.75;;
13879;SDS011;7010;48.200;16.332;2022-11-15T08:21:00;46.45;;;28.98;;
13879;SDS011;7010;48.200;16.332;2022-11-15T08:23:29;49.72;;;30.90;;
13879;SDS011;7010;48.200;16.332;2022-11-15T08:25:59;45.38;;;29.95;;
13879;SDS011;7010;48.200;16.332;2022-11-15T08:28:29;41.63;;;28.83;;
13879;SDS011;7010;48.200;16.332;2022-11-15T08:30:59;38.28;;;28.75;;
13879;SDS011;7010;48.200;16.332;2022-11-15T08:33:28;47.28;;;29.85;;
13879;SDS011;7010;48.200;16.332;2022-11-15T08:35:57;58.83;;;32.55;;
13879;SDS011;7010;48.200;16.332;2022-11-15T08:38:26;65.13;;;30.13;;
13879;SDS011;7010;48.200;16.332;2022-11-15T08:40:59;43.10;;;29.67;;
13879;SDS011;7010;48.200;16.332;2022-11-15T08:43:30;44.85;;;28.77;;
13879;SDS011;7010;48.200;16.332;2022-11-15T08:46:00;48.17;;;31.50;;
13879;SDS011;7010;48.200;16.332;2022-11-15T08:48:29;46.70;;;30.88;;
13879;SDS011;7010;48.200;16.332;2022-11-15T08:50:58;37.00;;;26.70;;
13879;SDS011;7010;48.200;16.332;2022-11-15T08:53:26;35.78;;;26.92;;
13879;SDS011;7010;48.200;16.332;2022-11-15T08:55:55;35.00;;;24.95;;
13879;SDS011;7010;48.200;16.332;2022-11-15T08:58:23;40.92;;;25.38;;
13879;SDS011;7010;48.200;16.332;2022-11-15T09:00:51;50.10;;;27.25;;
13879;SDS011;7010;48.200;16.332;2022-11-15T09:03:21;44.50;;;28.17;;
13879;SDS011;7010;48.200;16.332;2022-11-15T09:05:53;37.63;;;27.35;;
13879;SDS011;7010;48.200;16.332;2022-11-15T09:08:23;39.22;;;28.30;;
13879;SDS011;7010;48.200;16.332;2022-11-15T09:11:11;47.15;;;29.27;;
13879;SDS011;7010;48.200;16.332;2022-11-15T09:13:41;46.28;;;29.17;;
13879;SDS011;7010;48.200;16.332;2022-11-15T09:16:09;51.28;;;28.90;;
13879;SDS011;7010;48.200;16.332;2022-11-15T09:18:39;38.90;;;25.83;;
13879;SDS011;7010;48.200;16.332;2022-11-15T09:21:10;39.80;;;27.98;;
13879;SDS011;7010;48.200;16.332;2022-11-15T09:23:42;44.03;;;27.67;;
13879;SDS011;7010;48.200;16.332;2022-11-15T09:26:14;66.15;;;30.45;;
13879;SDS011;7010;48.200;16.332;2022-11-15T09:28:43;42.85;;;28.02;;
13879;SDS011;7010;48.200;16.332;2022-11-15T09:31:11;39.90;;;27.55;;
13879;SDS011;7010;48.200;16.332;2022-11-15T09:33:48;47.60;;;28.00;;
13879;SDS011;7010;48.200;16.332;2022-11-15T09:36:18;46.03;;;30.15;;
13879;SDS011;7010;48.200;16.332;2022-11-15T09:38:47;42.92;;;27.40;;
13879;SDS011;7010;48.200;16.332;2022-11-15T09:44:25;51.47;;;30.35;;
13879;SDS011;7010;48.200;16.332;2022-11-15T09:50:21;58.97;;;30.77;;
13879;SDS011;7010;48.200;16.332;2022-11-15T09:52:59;38.30;;;28.08;;
13879;SDS011;7010;48.200;16.332;2022-11-15T09:55:35;54.03;;;32.00;;
13879;SDS011;7010;48.200;16.332;2022-11-15T09:58:10;54.30;;;30.63;;
13879;SDS011;7010;48.200;16.332;2022-11-15T10:00:47;53.42;;;33.58;;
13879;SDS011;7010;48.200;16.332;2022-11-15T10:03:23;50.90;;;32.17;;
13879;SDS011;7010;48.200;16.332;2022-11-15T10:05:57;51.75;;;31.50;;
13879;SDS011;7010;48.200;16.332;2022-11-15T10:08:35;50.85;;;28.83;;
13879;SDS011;7010;48.200;16.332;2022-11-15T10:11:15;42.53;;;30.40;;
13879;SDS011;7010;48.200;16.332;2022-11-15T10:14:05;56.17;;;32.30;;
13879;SDS011;7010;48.200;16.332;2022-11-15T10:17:04;50.72;;;31.25;;
13879;SDS011;7010;48.200;16.332;2022-11-15T10:19:40;58.90;;;32.47;;
13879;SDS011;7010;48.200;16.332;2022-11-15T10:22:21;41.92;;;27.48;;
13879;SDS011;7010;48.200;16.332;2022-11-15T10:24:59;44.42;;;31.58;;
13879;SDS011;7010;48.200;16.332;2022-11-15T10:27:38;41.55;;;30.48;;
13879;SDS011;7010;48.200;16.332;2022-11-15T10:30:10;38.75;;;30.65;;
13879;SDS011;7010;48.200;16.332;2022-11-15T10:32:40;47.70;;;30.38;;
13879;SDS011;7010;48.200;16.332;2022-11-15T10:35:18;48.50;;;29.67;;
13879;SDS011;7010;48.200;16.332;2022-11-15T10:37:49;45.35;;;31.08;;
13879;SDS011;7010;48.200;16.332;2022-11-15T10:40:19;52.80;;;32.17;;
13879;SDS011;7010;48.200;16.332;2022-11-15T10:43:03;44.55;;;31.27;;
13879;SDS011;7010;48.200;16.332;2022-11-15T10:45:33;47.47;;;34.40;;
13879;SDS011;7010;48.200;16.332;2022-11-15T10:50:50;52.40;;;34.33;;
13879;SDS011;7010;48.200;16.332;2022-11-15T10:53:23;55.67;;;34.78;;
13879;SDS011;7010;48.200;16.332;2022-11-15T10:55:58;48.53;;;33.83;;
13879;SDS011;7010;48.200;16.332;2022-11-15T10:58:35;75.22;;;36.38;;
13879;SDS011;7010;48.200;16.332;2022-11-15T11:01:09;56.80;;;35.15;;
13879;SDS011;7010;48.200;16.332;2022-11-15T11:03:43;61.40;;;37.15;;
13879;SDS011;7010;48.200;16.332;2022-11-15T11:06:13;52.63;;;32.88;;
13879;SDS011;7010;48.200;16.332;2022-11-15T11:11:43;49.78;;;33.75;;
13879;SDS011;7010;48.200;16.332;2022-11-15T11:14:16;55.28;;;32.17;;
13879;SDS011;7010;48.200;16.332;2022-11-15T11:16:56;66.28;;;36.95;;
13879;SDS011;7010;48.200;16.332;2022-11-15T11:19:45;51.15;;;33.67;;
13879;SDS011;7010;48.200;16.332;2022-11-15T11:22:23;60.67;;;37.53;;
13879;SDS011;7010;48.200;16.332;2022-11-15T11:25:04;54.22;;;34.42;;
13879;SDS011;7010;48.200;16.332;2022-11-15T11:27:42;58.17;;;34.70;;
13879;SDS011;7010;48.200;16.332;2022-11-15T11:30:20;54.25;;;35.97;;
13879;SDS011;7010;48.200;16.332;2022-11-15T11:33:05;60.28;;;36.40;;
13879;SDS011;7010;48.200;16.332;2022-11-15T11:35:45;65.32;;;35.15;;
13879;SDS011;7010;48.200;16.332;2022-11-15T11:38:34;53.33;;;36.92;;
13879;SDS011;7010;48.200;16.332;2022-11-15T11:41:27;44.95;;;32.60;;
13879;SDS011;7010;48.200;16.332;2022-11-15T11:44:11;54.97;;;33.45;;
13879;SDS011;7010;48.200;16.332;2022-11-15T11:46:49;60.78;;;35.83;;
13879;SDS011;7010;48.200;16.332;2022-11-15T11:49:26;51.35;;;32.58;;
13879;SDS011;7010;48.200;16.332;2022-11-15T11:52:01;45.63;;;33.67;;
13879;SDS011;7010;48.200;16.332;2022-11-15T11:54:37;75.15;;;36.25;;
13879;SDS011;7010;48.200;16.332;2022-11-15T11:57:17;52.83;;;33.30;;
13879;SDS011;7010;48.200;16.332;2022-11-15T11:59:56;48.85;;;34.33;;
13879;SDS011;7010;48.200;16.332;2022-11-15T12:02:31;50.35;;;35.35;;
13879;SDS011;7010;48.200;16.332;2022-11-15T12:05:03;51.70;;;35.42;;
13879;SDS011;7010;48.200;16.332;2022-11-15T12:07:50;58.50;;;34.85;;
13879;SDS011;7010;48.200;16.332;2022-11-15T12:10:29;52.85;;;33.33;;
13879;SDS011;7010;48.200;16.332;2022-11-15T12:13:04;51.95;;;32.67;;
13879;SDS011;7010;48.200;16.332;2022-11-15T12:15:39;58.67;;;34.20;;
13879;SDS011;7010;48.200;16.332;2022-11-15T12:18:12;54.20;;;33.08;;
13879;SDS011;7010;48.200;16.332;2022-11-15T12:20:50;46.00;;;32.00;;
13879;SDS011;7010;48.200;16.332;2022-11-15T12:23:23;51.22;;;34.40;;
13879;SDS011;7010;48.200;16.332;2022-11-15T12:25:56;44.85;;;32.92;;
13879;SDS011;7010;48.200;16.332;2022-11-15T12:28:29;54.75;;;32.15;;
13879;SDS011;7010;48.200;16.332;2022-11-15T12:31:03;40.05;;;29.83;;
13879;SDS011;7010;48.200;16.332;2022-11-15T12:33:35;58.60;;;34.53;;
13879;SDS011;7010;48.200;16.332;2022-11-15T12:36:05;56.30;;;31.70;;
13879;SDS011;7010;48.200;16.332;2022-11-15T12:38:51;39.45;;;30.38;;
13879;SDS011;7010;48.200;16.332;2022-11-15T12:41:22;46.05;;;33.20;;
13879;SDS011;7010;48.200;16.332;2022-11-15T12:43:54;50.67;;;31.80;;
13879;SDS011;7010;48.200;16.332;2022-11-15T12:49:43;43.42;;;29.10;;
13879;SDS011;7010;48.200;16.332;2022-11-15T12:52:12;36.67;;;28.00;;
13879;SDS011;7010;48.200;16.332;2022-11-15T12:54:54;43.92;;;29.25;;
13879;SDS011;7010;48.200;16.332;2022-11-15T12:57:38;46.05;;;32.45;;
13879;SDS011;7010;48.200;16.332;2022-11-15T13:03:21;44.35;;;30.58;;
13879;SDS011;7010;48.200;16.332;2022-11-15T13:06:08;49.78;;;32.20;;
13879;SDS011;7010;48.200;16.332;2022-11-15T13:08:57;44.35;;;30.63;;
13879;SDS011;7010;48.200;16.332;2022-11-15T13:11:42;45.85;;;30.60;;
13879;SDS011;7010;48.200;16.332;2022-11-15T13:17:26;49.90;;;29.88;;
13879;SDS011;7010;48.200;16.332;2022-11-15T13:20:21;40.97;;;29.45;;
13879;SDS011;7010;48.200;16.332;2022-11-15T13:22:59;36.42;;;28.33;;
13879;SDS011;7010;48.200;16.332;2022-11-15T13:25:40;40.20;;;28.67;;
13879;SDS011;7010;48.200;16.332;2022-11-15T13:28:36;44.97;;;28.95;;
13879;SDS011;7010;48.200;16.332;2022-11-15T13:31:16;37.78;;;29.17;;
13879;SDS011;7010;48.200;16.332;2022-11-15T13:33:50;40.90;;;27.45;;
13879;SDS011;7010;48.200;16.332;2022-11-15T13:36:24;35.42;;;28.58;;
13879;SDS011;7010;48.200;16.332;2022-11-15T13:38:56;37.85;;;28.27;;
13879;SDS011;7010;48.200;16.332;2022-11-15T13:41:27;33.10;;;28.20;;
13879;SDS011;7010;48.200;16.332;2022-11-15T13:43:57;37.13;;;27.90;;
13879;SDS011;7010;48.200;16.332;2022-11-15T13:46:27;49.20;;;29.80;;
13879;SDS011;7010;48.200;16.332;2022-11-15T13:48:59;33.65;;;28.27;;
13879;SDS011;7010;48.200;16.332;2022-11-15T13:51:32;36.42;;;29.13;;
13879;SDS011;7010;48.200;16.332;2022-11-15T13:54:07;38.17;;;29.85;;
13879;SDS011;7010;48.200;16.332;2022-11-15T13:56:47;36.83;;;29.17;;
13879;SDS011;7010;48.200;16.332;2022-11-15T13:59:23;35.88;;;27.05;;
13879;SDS011;7010;48.200;16.332;2022-11-15T14:01:55;34.08;;;26.48;;
13879;SDS011;7010;48.200;16.332;2022-11-15T14:04:27;38.75;;;28.48;;
13879;SDS011;7010;48.200;16.332;2022-11-15T14:07:02;44.10;;;29.33;;
13879;SDS011;7010;48.200;16.332;2022-11-15T14:09:31;37.35;;;29.45;;
13879;SDS011;7010;48.200;16.332;2022-11-15T14:12:02;39.05;;;29.50;;
13879;SDS011;7010;48.200;16.332;2022-11-15T14:14:53;36.28;;;26.20;;
13879;SDS011;7010;48.200;16.332;2022-11-15T14:17:35;32.97;;;25.52;;
13879;SDS011;7010;48.200;16.332;2022-11-15T14:22:56;33.47;;;26.60;;
13879;SDS011;7010;48.200;16.332;2022-11-15T14:25:25;29.00;;;23.95;;
13879;SDS011;7010;48.200;16.332;2022-11-15T14:28:12;35.63;;;24.73;;
13879;SDS011;7010;48.200;16.332;2022-11-15T14:30:43;29.73;;;23.92;;
13879;SDS011;7010;48.200;16.332;2022-11-15T14:33:20;27.15;;;23.25;;
13879;SDS011;7010;48.200;16.332;2022-11-15T14:35:50;31.65;;;24.88;;
13879;SDS011;7010;48.200;16.332;2022-11-15T14:38:21;29.33;;;24.13;;
13879;SDS011;7010;48.200;16.332;2022-11-15T14:40:51;37.08;;;24.33;;
13879;SDS011;7010;48.200;16.332;2022-11-15T14:43:20;35.42;;;24.73;;
13879;SDS011;7010;48.200;16.332;2022-11-15T14:45:50;29.38;;;22.40;;
13879;SDS011;7010;48.200;16.332;2022-11-15T14:48:24;27.83;;;24.23;;
13879;SDS011;7010;48.200;16.332;2022-11-15T14:50:52;44.55;;;26.80;;
13879;SDS011;7010;48.200;16.332;2022-11-15T14:53:22;34.80;;;26.35;;
13879;SDS011;7010;48.200;16.332;2022-11-15T14:55:50;37.63;;;27.17;;
13879;SDS011;7010;48.200;16.332;2022-11-15T14:58:19;40.78;;;27.38;;
13879;SDS011;7010;48.200;16.332;2022-11-15T15:00:47;37.65;;;29.42;;
13879;SDS011;7010;48.200;16.332;2022-11-15T15:03:15;40.83;;;30.52;;
13879;SDS011;7010;48.200;16.332;2022-11-15T15:05:43;35.45;;;29.98;;
13879;SDS011;7010;48.200;16.332;2022-11-15T15:08:12;38.17;;;31.15;;
13879;SDS011;7010;48.200;16.332;2022-11-15T15:10:42;40.58;;;31.30;;
13879;SDS011;7010;48.200;16.332;2022-11-15T15:13:14;41.63;;;31.48;;
13879;SDS011;7010;48.200;16.332;2022-11-15T15:15:49;56.90;;;31.95;;
13879;SDS011;7010;48.200;16.332;2022-11-15T15:18:18;39.05;;;30.42;;